createdAt,value
2019-02-18T00:01:42.067Z,16.80
2019-02-18T00:06:52.176Z,16.40
2019-02-18T00:12:03.209Z,16.07
2019-02-18T00:17:12.209Z,16.63
2019-02-18T00:22:14.209Z,17.13
2019-02-18T00:27:22.455Z,16.33
2019-02-18T00:32:37.758Z,16.83
2019-02-18T00:37:48.026Z,17.33
2019-02-18T00:43:04.190Z,18.07
2019-02-18T00:48:14.419Z,17.10
2019-02-18T00:53:23.490Z,16.30
2019-02-18T00:58:32.479Z,17.20
2019-02-18T01:03:41.769Z,17.83
2019-02-18T01:08:50.584Z,16.63
2019-02-18T01:14:00.925Z,17.07
2019-02-18T01:19:15.773Z,17.03
2019-02-18T01:24:30.712Z,17.07
2019-02-18T01:29:38.960Z,16.50
2019-02-18T01:34:54.113Z,16.87
2019-02-18T01:40:03.523Z,17.63
2019-02-18T01:45:19.317Z,17.17
2019-02-18T01:50:38.631Z,18.27
2019-02-18T01:55:47.700Z,17.63
2019-02-18T02:00:57.517Z,17.37
2019-02-18T02:06:09.569Z,18.00
2019-02-18T02:11:19.918Z,17.27
2019-02-18T02:16:31.707Z,18.07
2019-02-18T02:21:40.667Z,17.97
2019-02-18T02:26:49.704Z,17.23
2019-02-18T02:31:58.585Z,16.43
2019-02-18T02:37:13.571Z,16.63
2019-02-18T02:42:23.509Z,16.60
2019-02-18T02:47:38.652Z,16.27
2019-02-18T02:52:47.548Z,16.30
2019-02-18T02:57:56.572Z,16.53
2019-02-18T03:03:05.518Z,16.13
2019-02-18T03:08:20.298Z,16.23
2019-02-18T03:13:26.324Z,15.70
2019-02-18T03:18:38.506Z,15.50
2019-02-18T03:23:55.661Z,15.03
2019-02-18T03:29:40.791Z,15.63
2019-02-18T03:34:51.848Z,15.63
2019-02-18T03:40:12.558Z,15.37
2019-02-18T03:45:25.079Z,14.70
2019-02-18T03:50:34.050Z,15.50
2019-02-18T04:01:14.343Z,15.07
2019-02-18T04:06:23.573Z,15.10
2019-02-18T04:11:33.597Z,15.93
2019-02-18T04:16:42.903Z,15.10
2019-02-18T04:21:51.638Z,14.97
2019-02-18T04:27:01.586Z,14.70
2019-02-18T04:32:10.645Z,15.10
2019-02-18T04:37:30.758Z,14.93
2019-02-18T04:42:42.710Z,15.00
2019-02-18T04:47:51.738Z,14.13
2019-02-18T04:53:07.120Z,15.53
2019-02-18T04:58:22.499Z,15.37
2019-02-18T05:03:31.633Z,15.20
2019-02-18T05:08:39.839Z,14.37
2019-02-18T05:13:42.115Z,14.90
2019-02-18T05:18:58.596Z,14.93
2019-02-18T05:24:06.772Z,14.33
2019-02-18T05:29:15.683Z,14.07
2019-02-18T05:34:25.229Z,14.73
2019-02-18T05:39:34.234Z,14.63
2019-02-18T05:44:47.549Z,15.30
2019-02-18T05:49:59.511Z,14.43
2019-02-18T05:55:09.371Z,15.03
2019-02-18T06:00:18.384Z,14.27
2019-02-18T06:05:27.388Z,14.07
2019-02-18T06:10:36.369Z,13.93
2019-02-18T06:15:51.493Z,14.63
2019-02-18T06:20:59.718Z,14.23
2019-02-18T06:26:08.751Z,15.53
2019-02-18T06:31:16.858Z,13.30
2019-02-18T06:36:28.015Z,14.23
2019-02-18T06:41:38.344Z,12.20
2019-02-18T06:46:56.427Z,13.10
2019-02-18T06:52:11.774Z,14.20
2019-02-18T06:57:38.136Z,13.73
2019-02-18T07:09:01.944Z,13.50
2019-02-18T07:14:11.010Z,13.70
2019-02-18T07:19:21.145Z,14.13
2019-02-18T07:24:31.296Z,13.30
2019-02-18T07:29:42.419Z,13.53
2019-02-18T07:34:53.544Z,13.93
2019-02-18T07:40:02.714Z,14.30
2019-02-18T07:45:23.456Z,14.30
2019-02-18T07:50:38.409Z,13.53
2019-02-18T07:55:47.347Z,13.03
2019-02-18T08:00:57.786Z,12.47
2019-02-18T08:06:13.248Z,13.10
2019-02-18T08:11:22.094Z,13.67
2019-02-18T08:16:33.160Z,13.13
2019-02-18T08:21:44.125Z,13.70
2019-02-18T08:27:01.036Z,12.93
2019-02-18T08:32:18.907Z,12.43
2019-02-18T08:37:33.483Z,14.53
2019-02-18T08:42:50.804Z,13.00
2019-02-18T08:47:59.923Z,14.07
2019-02-18T08:53:17.154Z,13.93
2019-02-18T08:58:26.182Z,13.80
2019-02-18T09:03:41.267Z,13.73
2019-02-18T09:08:56.420Z,13.97
2019-02-18T09:14:07.336Z,13.77
2019-02-18T09:19:17.529Z,14.20
2019-02-18T09:24:37.593Z,13.60
2019-02-18T09:29:46.600Z,14.97
2019-02-18T09:35:02.046Z,14.60
2019-02-18T09:40:08.429Z,15.27
2019-02-18T09:45:19.305Z,14.10
2019-02-18T09:50:31.337Z,16.03
2019-02-18T09:55:46.674Z,14.60
2019-02-18T10:00:56.985Z,14.73
2019-02-18T10:06:12.120Z,15.10
2019-02-18T10:11:22.527Z,14.90
2019-02-18T10:16:31.930Z,14.63
2019-02-18T10:21:44.475Z,14.80
2019-02-18T10:26:53.537Z,15.63
2019-02-18T10:32:02.410Z,15.23
2019-02-18T10:37:11.507Z,16.40
2019-02-18T10:42:22.666Z,15.67
2019-02-18T10:47:31.591Z,16.67
2019-02-18T10:52:46.680Z,16.40
2019-02-18T10:57:55.858Z,16.23
2019-02-18T11:03:05.935Z,16.90
2019-02-18T11:08:14.992Z,16.23
2019-02-18T11:13:31.124Z,15.33
2019-02-18T11:18:40.274Z,15.40
2019-02-18T11:23:49.254Z,17.73
2019-02-18T11:29:02.212Z,15.07
2019-02-18T11:34:10.926Z,15.60
2019-02-18T11:39:19.601Z,14.77
2019-02-18T11:44:29.762Z,16.27
2019-02-18T11:49:38.664Z,13.77
2019-02-18T11:54:55.583Z,14.60
2019-02-18T12:00:10.695Z,15.03
2019-02-18T12:05:21.621Z,14.53
2019-02-18T12:10:36.847Z,14.40
2019-02-18T12:15:45.159Z,13.27
2019-02-18T12:20:53.410Z,13.63
2019-02-18T12:26:03.601Z,13.07
2019-02-18T12:31:12.721Z,12.20
2019-02-18T12:36:28.712Z,12.97
2019-02-18T12:41:47.957Z,12.40
2019-02-18T12:46:48.669Z,12.47
2019-02-18T12:52:04.900Z,12.20
2019-02-18T12:57:13.986Z,11.37
2019-02-18T13:02:22.844Z,11.33
2019-02-18T13:07:38.879Z,11.10
2019-02-18T13:18:20.218Z,10.40
2019-02-18T13:23:29.158Z,9.90
2019-02-18T13:28:38.105Z,9.80
2019-02-18T13:33:46.915Z,9.63
2019-02-18T13:38:48.979Z,11.17
2019-02-18T13:43:59.550Z,11.57
2019-02-18T13:49:11.353Z,10.00
2019-02-18T13:54:26.436Z,11.40
2019-02-18T13:59:36.112Z,10.57
2019-02-18T14:04:51.183Z,11.27
2019-02-18T14:10:00.511Z,11.07
2019-02-18T14:15:09.647Z,10.40
2019-02-18T14:20:18.925Z,11.80
2019-02-18T14:25:27.848Z,11.43
2019-02-18T14:30:36.910Z,11.13
2019-02-18T14:41:33.492Z,12.03
2019-02-18T14:46:36.380Z,13.80
2019-02-18T15:13:16.159Z,14.83
2019-02-18T15:18:19.172Z,14.50
2019-02-18T15:23:23.137Z,16.73
2019-02-18T15:42:53.730Z,15.40
2019-02-18T15:48:01.691Z,16.37
2019-02-18T15:53:00.666Z,15.67
2019-02-18T15:58:02.663Z,15.97
2019-02-18T16:03:05.379Z,16.97
2019-02-18T16:08:07.434Z,17.43
2019-02-18T16:13:09.444Z,17.03
2019-02-18T16:18:11.566Z,19.20
2019-02-18T16:23:13.627Z,17.83
2019-02-18T16:28:15.682Z,18.37
2019-02-18T16:33:23.070Z,18.30
2019-02-18T16:38:25.471Z,20.37
2019-02-18T16:43:27.788Z,19.90
2019-02-18T16:48:29.794Z,19.63
2019-02-18T16:53:32.115Z,19.40
2019-02-18T16:58:34.129Z,20.00
2019-02-18T17:03:36.146Z,20.50
2019-02-18T17:08:38.160Z,20.83
2019-02-18T17:13:40.179Z,22.07
2019-02-18T17:18:44.812Z,22.00
2019-02-18T17:23:46.830Z,21.97
2019-02-18T17:28:48.984Z,23.10
2019-02-18T17:33:56.862Z,22.30
2019-02-18T17:38:58.909Z,22.50
2019-02-18T17:44:01.042Z,23.50
2019-02-18T17:49:04.068Z,22.57
2019-02-18T17:54:06.596Z,22.23
2019-02-18T17:59:10.731Z,21.30
2019-02-18T18:04:12.788Z,22.03
2019-02-18T18:09:20.636Z,20.30
2019-02-18T18:14:25.536Z,19.30
2019-02-18T18:19:34.433Z,19.70
2019-02-18T18:24:36.488Z,19.53
2019-02-18T18:29:38.573Z,20.03
2019-02-18T18:34:40.917Z,20.17
2019-02-18T18:39:46.271Z,21.57
2019-02-18T18:44:48.320Z,22.03
2019-02-18T18:49:50.705Z,23.30
2019-02-18T18:54:55.165Z,22.83
2019-02-18T19:00:00.301Z,24.97
2019-02-18T19:05:02.596Z,25.00
2019-02-18T19:10:07.346Z,26.60
2019-02-18T19:15:11.408Z,27.53
2019-02-18T19:20:13.474Z,26.60
2019-02-18T19:25:15.522Z,26.43
2019-02-18T19:30:20.186Z,27.90
2019-02-18T19:35:22.500Z,28.03
2019-02-18T19:40:25.037Z,28.63
2019-02-18T19:45:27.152Z,29.97
2019-02-18T19:50:30.985Z,29.80
2019-02-18T19:55:33.022Z,30.17
2019-02-18T20:00:35.671Z,30.37
2019-02-18T20:05:37.673Z,30.20
2019-02-18T20:10:39.723Z,32.20
2019-02-18T20:15:41.719Z,32.50
2019-02-18T20:20:43.792Z,32.73
2019-02-18T20:25:46.321Z,31.33
2019-02-18T20:30:48.611Z,31.03
2019-02-18T20:35:50.607Z,33.93
2019-02-18T20:40:52.825Z,31.83
2019-02-18T20:45:57.263Z,36.57
2019-02-18T20:50:59.580Z,35.10
2019-02-18T20:56:01.583Z,36.47
2019-02-18T21:01:05.619Z,38.47
2019-02-18T21:06:07.723Z,40.60
2019-02-18T21:11:09.870Z,42.00
2019-02-18T21:16:12.289Z,40.67
2019-02-18T21:21:14.462Z,41.97
2019-02-18T21:26:16.730Z,42.87
2019-02-18T21:31:18.789Z,42.20
2019-02-18T21:36:20.843Z,42.83
2019-02-18T21:41:26.404Z,44.50
2019-02-18T21:46:31.398Z,43.20
2019-02-18T21:51:36.822Z,45.70
2019-02-18T21:56:43.247Z,49.10
2019-02-18T22:01:45.379Z,49.10
2019-02-18T22:06:47.380Z,50.50
2019-02-18T22:11:49.722Z,49.53
2019-02-18T22:16:51.766Z,42.43
2019-02-18T22:21:53.891Z,40.17
2019-02-18T22:26:56.020Z,38.20
2019-02-18T22:32:00.778Z,36.97
2019-02-18T22:37:04.792Z,35.83
2019-02-18T22:42:06.906Z,35.90
2019-02-18T22:47:08.902Z,36.90
2019-02-18T22:52:10.899Z,35.93
2019-02-18T22:57:12.918Z,33.00
2019-02-18T23:02:17.769Z,22.63
2019-02-18T23:07:19.785Z,18.97
2019-02-18T23:12:22.218Z,14.37
2019-02-18T23:17:27.843Z,11.87
2019-02-18T23:22:30.132Z,9.67
2019-02-18T23:27:32.448Z,8.87
2019-02-18T23:32:35.014Z,8.80
2019-02-18T23:37:37.036Z,8.33
2019-02-18T23:42:41.521Z,8.17
2019-02-18T23:47:43.539Z,8.50
2019-02-18T23:52:45.836Z,7.67
2019-02-18T23:57:48.050Z,7.00
